createdAt,value
2023-04-09T00:00:17.922Z,8.53
2023-04-09T00:02:44.803Z,8.52
2023-04-09T00:05:11.766Z,8.53
2023-04-09T00:07:38.546Z,8.53
2023-04-09T00:10:06.248Z,8.52
2023-04-09T00:12:33.119Z,8.54
2023-04-09T00:14:59.974Z,8.54
2023-04-09T00:17:26.841Z,8.55
2023-04-09T00:19:53.656Z,8.54
2023-04-09T00:22:20.405Z,8.54
2023-04-09T00:24:47.396Z,8.56
2023-04-09T00:27:14.221Z,8.54
2023-04-09T00:29:41.231Z,8.53
2023-04-09T00:32:08.577Z,8.54
2023-04-09T00:34:35.538Z,8.53
2023-04-09T00:37:02.359Z,8.53
2023-04-09T00:39:29.120Z,8.53
2023-04-09T00:42:02.637Z,8.52
2023-04-09T00:44:29.514Z,8.53
2023-04-09T00:46:58.173Z,8.55
2023-04-09T00:49:26.584Z,8.53
2023-04-09T00:51:53.952Z,8.52
2023-04-09T00:54:20.932Z,8.52
2023-04-09T00:56:47.952Z,8.54
2023-04-09T00:59:15.553Z,8.52
2023-04-09T01:01:42.728Z,8.51
2023-04-09T01:04:10.034Z,8.50
2023-04-09T01:06:59.267Z,8.49
2023-04-09T01:09:34.003Z,8.50
2023-04-09T01:12:18.362Z,8.50
2023-04-09T01:14:57.139Z,8.52
2023-04-09T01:17:31.343Z,8.52
2023-04-09T01:20:10.560Z,8.51
2023-04-09T01:22:45.453Z,8.51
2023-04-09T01:25:15.175Z,8.49
2023-04-09T01:27:59.962Z,8.49
2023-04-09T01:30:28.926Z,8.50
2023-04-09T01:32:58.215Z,8.50
2023-04-09T01:35:27.190Z,8.50
2023-04-09T01:37:54.954Z,8.50
2023-04-09T01:40:21.850Z,8.50
2023-04-09T01:42:49.704Z,8.50
2023-04-09T01:45:16.978Z,8.49
2023-04-09T01:47:44.259Z,8.48
2023-04-09T01:50:11.184Z,8.48
2023-04-09T01:52:38.330Z,8.50
2023-04-09T01:55:05.797Z,8.49
2023-04-09T01:57:32.563Z,8.48
2023-04-09T01:59:59.558Z,8.51
2023-04-09T02:02:37.229Z,8.49
2023-04-09T02:05:09.516Z,8.48
2023-04-09T02:07:42.749Z,8.48
2023-04-09T02:10:12.193Z,8.49
2023-04-09T02:12:42.951Z,8.47
2023-04-09T02:15:10.930Z,8.48
2023-04-09T02:17:37.889Z,8.48
2023-04-09T02:20:04.989Z,8.49
2023-04-09T02:22:31.816Z,8.49
2023-04-09T02:24:58.576Z,8.48
2023-04-09T02:27:25.385Z,8.47
2023-04-09T02:29:52.122Z,8.46
2023-04-09T02:32:18.862Z,8.47
2023-04-09T02:34:46.087Z,8.46
2023-04-09T02:37:12.852Z,8.47
2023-04-09T02:39:39.643Z,8.44
2023-04-09T02:42:08.025Z,8.44
2023-04-09T02:44:35.086Z,8.46
2023-04-09T02:47:01.913Z,8.46
2023-04-09T02:49:28.756Z,8.45
2023-04-09T02:51:55.564Z,8.47
2023-04-09T02:54:22.337Z,8.47
2023-04-09T02:56:49.060Z,8.44
2023-04-09T02:59:16.360Z,8.46
2023-04-09T03:01:43.206Z,8.48
2023-04-09T03:04:10.298Z,8.47
2023-04-09T03:06:37.197Z,8.47
2023-04-09T03:09:03.938Z,8.46
2023-04-09T03:11:30.696Z,8.48
2023-04-09T03:13:57.500Z,8.49
2023-04-09T03:16:27.248Z,8.52
2023-04-09T03:18:54.240Z,8.50
2023-04-09T03:21:21.176Z,8.49
2023-04-09T03:23:47.914Z,8.48
2023-04-09T03:26:14.768Z,8.46
2023-04-09T03:28:41.530Z,8.48
2023-04-09T03:31:08.248Z,8.45
2023-04-09T03:33:35.019Z,8.44
2023-04-09T03:36:01.815Z,8.45
2023-04-09T03:38:28.587Z,8.47
2023-04-09T03:40:56.366Z,8.45
2023-04-09T03:43:23.123Z,8.43
2023-04-09T03:45:49.875Z,8.44
2023-04-09T03:48:16.669Z,8.45
2023-04-09T03:50:43.486Z,8.45
2023-04-09T03:53:10.362Z,8.45
2023-04-09T03:55:37.698Z,8.43
2023-04-09T03:58:04.469Z,8.44
2023-04-09T04:00:31.175Z,8.44
2023-04-09T04:02:58.170Z,8.45
2023-04-09T04:05:27.750Z,8.44
2023-04-09T04:07:55.212Z,8.43
2023-04-09T04:10:22.030Z,8.40
2023-04-09T04:12:48.796Z,8.43
2023-04-09T04:15:15.605Z,8.47
2023-04-09T04:17:42.475Z,8.46
2023-04-09T04:20:09.775Z,8.43
2023-04-09T04:22:36.608Z,8.40
2023-04-09T04:25:06.603Z,8.41
2023-04-09T04:27:33.469Z,8.39
2023-04-09T04:30:02.196Z,8.40
2023-04-09T04:32:29.412Z,8.38
2023-04-09T04:34:56.267Z,8.39
2023-04-09T04:37:23.084Z,8.39
2023-04-09T04:39:49.827Z,8.40
2023-04-09T04:42:17.217Z,8.39
2023-04-09T04:44:44.778Z,8.37
2023-04-09T04:47:11.613Z,8.39
2023-04-09T04:49:38.391Z,8.37
2023-04-09T04:52:06.248Z,8.37
2023-04-09T04:54:33.714Z,8.39
2023-04-09T04:57:01.365Z,8.37
2023-04-09T04:59:28.280Z,8.38
2023-04-09T05:01:55.273Z,8.38
2023-04-09T05:04:22.169Z,8.38
2023-04-09T05:06:49.139Z,8.37
2023-04-09T05:09:16.197Z,8.34
2023-04-09T05:11:43.633Z,8.36
2023-04-09T05:14:10.434Z,8.37
2023-04-09T05:16:37.566Z,8.36
2023-04-09T05:19:04.432Z,8.36
2023-04-09T05:21:32.176Z,8.36
2023-04-09T05:23:59.247Z,8.37
2023-04-09T05:26:26.990Z,8.37
2023-04-09T05:28:53.919Z,8.37
2023-04-09T05:31:21.048Z,8.37
2023-04-09T05:33:47.924Z,8.36
2023-04-09T05:36:16.972Z,8.37
2023-04-09T05:38:44.728Z,8.37
2023-04-09T05:41:11.539Z,8.37
2023-04-09T05:43:38.407Z,8.36
2023-04-09T05:46:05.885Z,8.38
2023-04-09T05:48:35.604Z,8.38
2023-04-09T05:51:02.396Z,8.38
2023-04-09T05:53:29.539Z,8.37
2023-04-09T05:55:56.445Z,8.38
2023-04-09T05:58:23.275Z,8.39
2023-04-09T06:00:51.943Z,8.41
2023-04-09T06:03:19.082Z,8.42
2023-04-09T06:05:46.777Z,8.45
2023-04-09T06:08:14.293Z,8.43
2023-04-09T06:10:41.510Z,8.42
2023-04-09T06:13:08.475Z,8.45
2023-04-09T06:15:35.316Z,8.49
2023-04-09T06:18:02.154Z,8.54
2023-04-09T06:20:29.027Z,8.56
2023-04-09T06:22:55.788Z,8.60
2023-04-09T06:25:22.772Z,8.63
2023-04-09T06:27:49.740Z,8.66
2023-04-09T06:30:16.509Z,8.67
2023-04-09T06:32:54.319Z,8.72
2023-04-09T06:35:22.103Z,8.79
2023-04-09T06:37:49.007Z,8.85
2023-04-09T06:40:16.174Z,8.90
2023-04-09T06:42:43.004Z,8.94
2023-04-09T06:45:10.173Z,8.95
2023-04-09T06:47:37.327Z,9.00
2023-04-09T06:50:04.768Z,9.07
2023-04-09T06:52:31.628Z,9.10
2023-04-09T06:54:58.476Z,9.10
2023-04-09T06:57:26.393Z,9.09
2023-04-09T06:59:53.249Z,9.09
2023-04-09T07:02:20.236Z,9.18
2023-04-09T07:04:47.836Z,9.24
2023-04-09T07:07:14.774Z,9.36
2023-04-09T07:09:42.237Z,9.51
2023-04-09T07:12:08.957Z,9.74
2023-04-09T07:14:35.858Z,10.07
2023-04-09T07:17:02.657Z,10.19
2023-04-09T07:19:29.512Z,10.35
2023-04-09T07:21:56.260Z,10.62
2023-04-09T07:24:23.126Z,10.85
2023-04-09T07:26:52.087Z,10.95
2023-04-09T07:29:20.863Z,11.14
2023-04-09T07:31:47.840Z,11.12
2023-04-09T07:34:14.757Z,11.06
2023-04-09T07:36:42.908Z,11.30
2023-04-09T07:39:09.863Z,11.53
2023-04-09T07:41:37.606Z,11.69
2023-04-09T07:44:06.464Z,11.84
2023-04-09T07:46:33.603Z,11.87
2023-04-09T07:49:00.488Z,12.03
2023-04-09T07:51:27.917Z,12.03
2023-04-09T07:53:55.430Z,12.31
2023-04-09T07:56:22.507Z,12.71
2023-04-09T07:58:49.557Z,12.91
2023-04-09T08:01:16.843Z,12.74
2023-04-09T08:03:44.142Z,12.70
2023-04-09T08:06:11.030Z,12.59
2023-04-09T08:08:37.866Z,12.46
2023-04-09T08:11:05.023Z,12.59
2023-04-09T08:13:31.820Z,12.57
2023-04-09T08:16:02.263Z,12.55
2023-04-09T08:18:29.693Z,12.61
2023-04-09T08:20:57.463Z,12.68
2023-04-09T08:23:24.335Z,12.51
2023-04-09T08:25:51.126Z,12.50
2023-04-09T08:28:18.076Z,12.49
2023-04-09T08:30:44.952Z,12.37
2023-04-09T08:33:11.794Z,12.31
2023-04-09T08:35:40.631Z,12.68
2023-04-09T08:38:07.388Z,12.61
2023-04-09T08:40:37.716Z,12.96
2023-04-09T08:43:07.180Z,13.24
2023-04-09T08:45:34.295Z,13.06
2023-04-09T08:48:04.080Z,12.89
2023-04-09T08:50:34.509Z,12.90
2023-04-09T08:53:04.816Z,13.18
2023-04-09T08:55:34.639Z,13.44
2023-04-09T08:58:05.987Z,13.85
2023-04-09T09:00:32.886Z,14.09
2023-04-09T09:03:09.871Z,14.38
2023-04-09T09:05:37.724Z,14.38
2023-04-09T09:08:04.904Z,14.20
2023-04-09T09:10:57.899Z,13.88
2023-04-09T09:13:26.345Z,13.85
2023-04-09T09:15:56.569Z,14.14
2023-04-09T09:18:40.636Z,14.16
2023-04-09T09:21:15.001Z,14.04
2023-04-09T09:23:42.829Z,14.02
2023-04-09T09:26:14.478Z,14.31
2023-04-09T09:28:41.572Z,14.28
2023-04-09T09:31:12.814Z,14.34
2023-04-09T09:33:40.603Z,14.39
2023-04-09T09:36:11.229Z,14.53
2023-04-09T09:38:57.968Z,14.41
2023-04-09T09:41:26.119Z,14.54
2023-04-09T09:43:52.988Z,14.76
2023-04-09T09:46:21.936Z,14.74
2023-04-09T09:48:49.992Z,15.17
2023-04-09T09:51:17.563Z,15.26
2023-04-09T09:53:46.591Z,15.14
2023-04-09T09:56:17.142Z,15.24
2023-04-09T09:59:01.620Z,15.28
2023-04-09T10:01:28.611Z,15.43
2023-04-09T10:04:00.177Z,15.61
2023-04-09T10:06:28.213Z,15.57
2023-04-09T10:08:58.404Z,15.76
2023-04-09T10:11:26.000Z,15.88
2023-04-09T10:13:59.003Z,15.81
2023-04-09T10:16:27.432Z,15.51
2023-04-09T10:18:58.657Z,15.63
2023-04-09T10:21:47.786Z,15.87
2023-04-09T10:24:16.221Z,16.11
2023-04-09T10:26:47.184Z,16.03
2023-04-09T10:29:16.756Z,16.24
2023-04-09T10:31:55.191Z,16.17
2023-04-09T10:34:24.798Z,15.93
2023-04-09T10:36:56.060Z,16.33
2023-04-09T10:39:32.625Z,16.16
2023-04-09T10:42:09.288Z,16.29
2023-04-09T10:44:41.590Z,16.37
2023-04-09T10:47:10.074Z,16.60
2023-04-09T10:49:38.736Z,16.97
2023-04-09T10:52:09.555Z,17.25
2023-04-09T10:54:42.145Z,17.38
2023-04-09T10:57:11.638Z,17.47
2023-04-09T10:59:45.283Z,17.16
2023-04-09T11:02:38.730Z,17.07
2023-04-09T11:05:36.023Z,17.47
2023-04-09T11:08:14.710Z,17.32
2023-04-09T11:10:44.894Z,17.22
2023-04-09T11:13:17.179Z,17.32
2023-04-09T11:15:46.223Z,17.15
2023-04-09T11:18:31.512Z,17.17
2023-04-09T11:21:00.604Z,17.54
2023-04-09T11:23:28.633Z,17.65
2023-04-09T11:25:56.312Z,17.73
2023-04-09T11:28:24.288Z,17.74
2023-04-09T11:30:52.182Z,17.43
2023-04-09T11:33:20.401Z,17.42
2023-04-09T11:35:47.980Z,17.36
2023-04-09T11:38:14.904Z,17.65
2023-04-09T11:40:49.909Z,18.05
2023-04-09T11:43:17.969Z,18.20
2023-04-09T11:45:49.409Z,18.07
2023-04-09T11:48:18.648Z,17.48
2023-04-09T11:50:46.809Z,17.92
2023-04-09T11:53:21.223Z,18.02
2023-04-09T11:55:51.623Z,17.85
2023-04-09T11:58:18.864Z,17.97
2023-04-09T12:00:46.240Z,17.70
2023-04-09T12:03:13.876Z,17.33
2023-04-09T12:05:50.945Z,16.88
2023-04-09T12:08:24.679Z,16.47
2023-04-09T12:10:53.837Z,16.69
2023-04-09T12:13:21.659Z,17.30
2023-04-09T12:15:50.209Z,16.93
2023-04-09T12:18:17.490Z,17.48
2023-04-09T12:20:47.640Z,18.06
2023-04-09T12:23:14.919Z,18.05
2023-04-09T12:25:44.208Z,18.11
2023-04-09T12:28:18.786Z,18.27
2023-04-09T12:30:46.888Z,18.03
2023-04-09T12:33:13.994Z,18.24
2023-04-09T12:35:41.103Z,18.28
2023-04-09T12:38:07.939Z,18.40
2023-04-09T12:40:38.006Z,18.67
2023-04-09T12:43:05.642Z,18.79
2023-04-09T12:45:33.283Z,18.85
2023-04-09T12:48:00.215Z,19.22
2023-04-09T12:50:27.241Z,19.37
2023-04-09T12:52:54.160Z,19.15
2023-04-09T12:55:22.591Z,19.20
2023-04-09T12:57:52.059Z,18.96
2023-04-09T13:00:19.099Z,18.95
2023-04-09T13:02:46.620Z,18.83
2023-04-09T13:05:13.743Z,18.79
2023-04-09T13:07:42.848Z,19.04
2023-04-09T13:10:10.829Z,19.05
2023-04-09T13:12:37.730Z,18.66
2023-04-09T13:15:05.073Z,18.80
2023-04-09T13:17:32.016Z,18.75
2023-04-09T13:19:58.963Z,18.89
2023-04-09T13:22:25.854Z,18.96
2023-04-09T13:24:52.857Z,19.24
2023-04-09T13:27:19.831Z,19.22
2023-04-09T13:29:46.701Z,19.25
2023-04-09T13:32:13.627Z,19.26
2023-04-09T13:34:40.947Z,19.40
2023-04-09T13:37:08.250Z,19.50
2023-04-09T13:39:35.515Z,19.31
2023-04-09T13:42:12.608Z,19.06
2023-04-09T13:44:44.971Z,19.08
2023-04-09T13:47:13.453Z,18.71
2023-04-09T13:49:40.950Z,18.86
2023-04-09T13:52:07.933Z,18.95
2023-04-09T13:54:34.868Z,18.94
2023-04-09T13:57:02.618Z,18.38
2023-04-09T13:59:29.693Z,18.13
2023-04-09T14:01:56.772Z,18.24
2023-04-09T14:04:23.900Z,18.37
2023-04-09T14:06:50.846Z,18.38
2023-04-09T14:09:17.738Z,18.47
2023-04-09T14:11:44.702Z,18.57
2023-04-09T14:14:11.617Z,18.66
2023-04-09T14:16:38.865Z,18.66
2023-04-09T14:19:06.689Z,18.64
2023-04-09T14:21:34.218Z,18.35
2023-04-09T14:24:01.331Z,18.34
2023-04-09T14:26:29.320Z,18.23
2023-04-09T14:28:56.462Z,18.22
2023-04-09T14:31:23.579Z,18.24
2023-04-09T14:33:50.608Z,17.94
2023-04-09T14:36:18.181Z,17.88
2023-04-09T14:38:45.075Z,17.99
2023-04-09T14:41:12.460Z,18.03
2023-04-09T14:43:39.786Z,17.85
2023-04-09T14:46:11.936Z,17.81
2023-04-09T14:48:39.955Z,17.82
2023-04-09T14:51:09.042Z,17.76
2023-04-09T14:53:36.532Z,17.71
2023-04-09T14:56:03.994Z,17.52
2023-04-09T14:58:31.235Z,17.40
2023-04-09T15:00:58.155Z,17.48
2023-04-09T15:03:25.577Z,17.57
2023-04-09T15:05:52.818Z,17.51
2023-04-09T15:08:19.755Z,17.44
2023-04-09T15:10:46.652Z,17.44
2023-04-09T15:13:13.656Z,17.39
2023-04-09T15:15:41.300Z,17.27
2023-04-09T15:18:08.325Z,17.19
2023-04-09T15:20:39.473Z,17.06
2023-04-09T15:23:06.503Z,16.99
2023-04-09T15:25:33.527Z,16.89
2023-04-09T15:28:00.597Z,16.72
2023-04-09T15:30:27.552Z,16.61
2023-04-09T15:32:54.640Z,16.55
2023-04-09T15:35:25.431Z,16.54
2023-04-09T15:37:52.638Z,16.53
2023-04-09T15:40:19.778Z,16.49
2023-04-09T15:42:46.868Z,16.44
2023-04-09T15:45:16.714Z,16.33
2023-04-09T15:47:45.154Z,16.26
2023-04-09T15:50:12.571Z,16.10
2023-04-09T15:52:39.759Z,15.95
2023-04-09T15:55:07.334Z,15.86
2023-04-09T15:57:34.352Z,15.85
2023-04-09T16:00:01.360Z,15.82
2023-04-09T16:02:28.380Z,15.72
2023-04-09T16:04:55.794Z,15.76
2023-04-09T16:07:22.818Z,15.73
2023-04-09T16:09:49.912Z,15.72
2023-04-09T16:12:16.847Z,15.68
2023-04-09T16:14:43.780Z,15.69
2023-04-09T16:17:11.256Z,15.70
2023-04-09T16:19:38.575Z,15.64
2023-04-09T16:22:05.525Z,15.57
2023-04-09T16:24:32.558Z,15.50
2023-04-09T16:26:59.539Z,15.48
2023-04-09T16:29:26.537Z,15.53
2023-04-09T16:31:53.763Z,15.52
2023-04-09T16:34:21.064Z,15.52
2023-04-09T16:36:48.059Z,15.36
2023-04-09T16:39:15.672Z,15.18
2023-04-09T16:41:44.174Z,15.13
2023-04-09T16:44:11.055Z,14.97
2023-04-09T16:46:38.048Z,14.86
2023-04-09T16:49:04.956Z,14.83
2023-04-09T16:51:32.016Z,14.73
2023-04-09T16:53:58.972Z,14.62
2023-04-09T16:56:26.200Z,14.59
2023-04-09T16:58:54.713Z,14.61
2023-04-09T17:01:21.843Z,14.60
2023-04-09T17:03:49.822Z,14.52
2023-04-09T17:06:17.162Z,14.45
2023-04-09T17:08:44.173Z,14.41
2023-04-09T17:11:17.744Z,14.38
2023-04-09T17:13:45.015Z,14.33
2023-04-09T17:16:12.163Z,14.27
2023-04-09T17:18:39.236Z,14.21
2023-04-09T17:21:06.888Z,14.16
2023-04-09T17:23:33.880Z,14.13
2023-04-09T17:26:01.820Z,14.07
2023-04-09T17:28:28.711Z,14.01
2023-04-09T17:30:55.775Z,13.97
2023-04-09T17:33:22.841Z,13.96
2023-04-09T17:35:49.809Z,13.90
2023-04-09T17:38:21.690Z,13.85
2023-04-09T17:40:48.839Z,13.80
2023-04-09T17:43:15.850Z,13.69
2023-04-09T17:45:42.956Z,13.54
2023-04-09T17:48:10.022Z,13.50
2023-04-09T17:50:38.874Z,13.44
2023-04-09T17:53:05.824Z,13.35
2023-04-09T17:55:32.748Z,13.30
2023-04-09T17:57:59.707Z,13.21
2023-04-09T18:00:26.821Z,13.14
2023-04-09T18:02:54.203Z,13.07
2023-04-09T18:05:23.228Z,12.99
2023-04-09T18:07:51.246Z,12.91
2023-04-09T18:10:18.470Z,12.84
2023-04-09T18:12:45.979Z,12.75
2023-04-09T18:15:12.869Z,12.66
2023-04-09T18:17:40.167Z,12.59
2023-04-09T18:20:07.758Z,12.50
2023-04-09T18:22:35.456Z,12.41
2023-04-09T18:25:02.453Z,12.31
2023-04-09T18:27:29.335Z,12.22
2023-04-09T18:29:56.619Z,12.17
2023-04-09T18:32:23.846Z,12.06
2023-04-09T18:34:50.919Z,11.98
2023-04-09T18:37:18.336Z,11.91
2023-04-09T18:39:46.508Z,11.83
2023-04-09T18:42:13.680Z,11.75
2023-04-09T18:44:40.770Z,11.67
2023-04-09T18:47:09.468Z,11.60
2023-04-09T18:49:37.063Z,11.50
2023-04-09T18:52:09.388Z,11.46
2023-04-09T18:54:37.426Z,11.39
2023-04-09T18:57:04.531Z,11.32
2023-04-09T18:59:33.588Z,11.25
2023-04-09T19:02:01.333Z,11.17
2023-04-09T19:04:28.514Z,11.11
2023-04-09T19:06:55.397Z,11.04
2023-04-09T19:09:22.459Z,10.97
2023-04-09T19:11:49.315Z,10.90
2023-04-09T19:14:16.158Z,10.87
2023-04-09T19:16:44.484Z,10.79
2023-04-09T19:19:12.049Z,10.73
2023-04-09T19:21:38.935Z,10.67
2023-04-09T19:24:06.366Z,10.58
2023-04-09T19:26:33.502Z,10.54
2023-04-09T19:29:00.449Z,10.48
2023-04-09T19:31:27.530Z,10.41
2023-04-09T19:33:54.405Z,10.32
2023-04-09T19:36:22.764Z,10.28
2023-04-09T19:38:51.242Z,10.26
2023-04-09T19:41:18.354Z,10.19
2023-04-09T19:43:47.929Z,10.15
2023-04-09T19:46:14.860Z,10.09
2023-04-09T19:48:41.824Z,10.08
2023-04-09T19:51:08.878Z,10.02
2023-04-09T19:53:37.813Z,9.97
2023-04-09T19:56:04.821Z,9.91
2023-04-09T19:58:32.783Z,9.87
2023-04-09T20:00:59.670Z,9.84
2023-04-09T20:03:26.486Z,9.79
2023-04-09T20:05:53.809Z,9.74
2023-04-09T20:08:20.694Z,9.70
2023-04-09T20:10:47.902Z,9.65
2023-04-09T20:13:14.702Z,9.59
2023-04-09T20:15:41.963Z,9.57
2023-04-09T20:18:08.807Z,9.54
2023-04-09T20:20:35.870Z,9.52
2023-04-09T20:23:03.474Z,9.48
2023-04-09T20:25:34.821Z,9.45
2023-04-09T20:28:02.683Z,9.43
2023-04-09T20:30:33.068Z,9.40
2023-04-09T20:33:00.062Z,9.35
2023-04-09T20:35:27.457Z,9.33
2023-04-09T20:37:55.248Z,9.31
2023-04-09T20:40:22.506Z,9.28
2023-04-09T20:42:49.394Z,9.24
2023-04-09T20:45:16.284Z,9.18
2023-04-09T20:47:43.232Z,9.13
2023-04-09T20:50:10.601Z,9.10
2023-04-09T20:52:37.786Z,9.08
2023-04-09T20:55:05.090Z,9.04
2023-04-09T20:57:31.935Z,8.99
2023-04-09T20:59:58.725Z,8.97
2023-04-09T21:02:25.734Z,8.93
2023-04-09T21:04:52.896Z,8.88
2023-04-09T21:07:19.642Z,8.85
2023-04-09T21:09:47.528Z,8.82
2023-04-09T21:12:14.385Z,8.78
2023-04-09T21:14:41.294Z,8.75
2023-04-09T21:17:08.171Z,8.74
2023-04-09T21:19:35.070Z,8.70
2023-04-09T21:22:01.876Z,8.67
2023-04-09T21:24:28.757Z,8.65
2023-04-09T21:26:55.728Z,8.60
2023-04-09T21:29:22.529Z,8.58
2023-04-09T21:31:49.635Z,8.54
2023-04-09T21:34:16.571Z,8.49
2023-04-09T21:36:45.384Z,8.43
2023-04-09T21:39:12.844Z,8.36
2023-04-09T21:41:39.907Z,8.32
2023-04-09T21:44:09.649Z,8.26
2023-04-09T21:46:37.688Z,8.17
2023-04-09T21:49:04.842Z,8.12
2023-04-09T21:51:32.444Z,8.08
2023-04-09T21:54:04.535Z,8.02
2023-04-09T21:56:32.990Z,7.98
2023-04-09T21:59:00.910Z,7.93
2023-04-09T22:01:31.671Z,7.93
2023-04-09T22:03:59.826Z,7.88
2023-04-09T22:06:29.100Z,7.84
2023-04-09T22:08:58.250Z,7.82
2023-04-09T22:11:29.769Z,7.78
2023-04-09T22:13:57.620Z,7.75
2023-04-09T22:16:25.620Z,7.71
2023-04-09T22:18:54.200Z,7.66
2023-04-09T22:21:21.595Z,7.65
2023-04-09T22:23:48.457Z,7.63
2023-04-09T22:26:15.434Z,7.60
2023-04-09T22:28:42.236Z,7.57
2023-04-09T22:31:09.004Z,7.53
2023-04-09T22:33:36.099Z,7.48
2023-04-09T22:36:02.999Z,7.44
2023-04-09T22:38:29.800Z,7.42
2023-04-09T22:40:56.626Z,7.39
2023-04-09T22:43:23.363Z,7.36
2023-04-09T22:45:54.867Z,7.34
2023-04-09T22:48:23.110Z,7.31
2023-04-09T22:50:50.497Z,7.27
2023-04-09T22:53:20.925Z,7.24
2023-04-09T22:55:51.123Z,7.23
2023-04-09T22:58:18.805Z,7.22
2023-04-09T23:00:47.152Z,7.19
2023-04-09T23:03:14.294Z,7.16
2023-04-09T23:05:41.402Z,7.17
2023-04-09T23:08:08.341Z,7.16
2023-04-09T23:10:35.579Z,7.17
2023-04-09T23:13:02.466Z,7.17
2023-04-09T23:15:29.293Z,7.14
2023-04-09T23:17:56.296Z,7.11
2023-04-09T23:20:23.792Z,7.09
2023-04-09T23:22:50.749Z,7.09
2023-04-09T23:25:17.887Z,7.08
2023-04-09T23:27:45.037Z,7.07
2023-04-09T23:30:16.829Z,7.03
2023-04-09T23:32:53.496Z,7.01
2023-04-09T23:35:22.112Z,7.02
2023-04-09T23:37:51.623Z,7.02
2023-04-09T23:40:18.371Z,7.00
2023-04-09T23:42:45.551Z,7.00
2023-04-09T23:45:12.359Z,7.02
2023-04-09T23:47:39.474Z,7.01
2023-04-09T23:50:07.716Z,7.02
2023-04-09T23:52:36.101Z,6.99
2023-04-09T23:55:03.857Z,6.99
2023-04-09T23:57:30.743Z,6.97
2023-04-09T23:59:57.630Z,6.96
